sensor_id;sensor_type;location;lat;lon;timestamp;P1;durP1;ratioP1;P2;durP2;ratioP2
51214;SDS011;63849;47.546;19.254;2023-06-24T00:02:11;6.85;;;6.25;;
51214;SDS011;63849;47.546;19.254;2023-06-24T00:04:37;7.65;;;6.25;;
51214;SDS011;63849;47.546;19.254;2023-06-24T00:07:04;7.28;;;5.65;;
51214;SDS011;63849;47.546;19.254;2023-06-24T00:09:29;6.30;;;5.80;;
51214;SDS011;63849;47.546;19.254;2023-06-24T00:11:56;7.25;;;6.47;;
51214;SDS011;63849;47.546;19.254;2023-06-24T00:14:24;6.47;;;5.97;;
51214;SDS011;63849;47.546;19.254;2023-06-24T00:16:51;6.35;;;5.85;;
51214;SDS011;63849;47.546;19.254;2023-06-24T00:19:21;6.88;;;6.13;;
51214;SDS011;63849;47.546;19.254;2023-06-24T00:21:48;6.90;;;6.18;;
51214;SDS011;63849;47.546;19.254;2023-06-24T00:24:21;6.32;;;5.72;;
51214;SDS011;63849;47.546;19.254;2023-06-24T00:26:54;7.28;;;6.68;;
51214;SDS011;63849;47.546;19.254;2023-06-24T00:29:20;8.00;;;7.22;;
51214;SDS011;63849;47.546;19.254;2023-06-24T00:31:46;7.00;;;6.40;;
51214;SDS011;63849;47.546;19.254;2023-06-24T00:34:12;6.68;;;6.07;;
51214;SDS011;63849;47.546;19.254;2023-06-24T00:36:39;8.02;;;7.30;;
51214;SDS011;63849;47.546;19.254;2023-06-24T00:39:05;6.70;;;6.10;;
51214;SDS011;63849;47.546;19.254;2023-06-24T00:41:31;8.13;;;6.47;;
51214;SDS011;63849;47.546;19.254;2023-06-24T00:43:59;7.05;;;6.35;;
51214;SDS011;63849;47.546;19.254;2023-06-24T00:46:25;6.82;;;6.28;;
51214;SDS011;63849;47.546;19.254;2023-06-24T00:48:52;7.30;;;6.70;;
51214;SDS011;63849;47.546;19.254;2023-06-24T00:51:19;7.03;;;6.32;;
51214;SDS011;63849;47.546;19.254;2023-06-24T00:53:46;7.00;;;6.40;;
51214;SDS011;63849;47.546;19.254;2023-06-24T00:56:15;6.30;;;5.80;;
51214;SDS011;63849;47.546;19.254;2023-06-24T00:58:44;7.07;;;6.38;;
51214;SDS011;63849;47.546;19.254;2023-06-24T01:01:10;6.68;;;5.93;;
51214;SDS011;63849;47.546;19.254;2023-06-24T01:03:36;7.60;;;6.35;;
51214;SDS011;63849;47.546;19.254;2023-06-24T01:06:03;6.70;;;6.15;;
51214;SDS011;63849;47.546;19.254;2023-06-24T01:08:29;6.50;;;5.88;;
51214;SDS011;63849;47.546;19.254;2023-06-24T01:10:55;8.27;;;6.03;;
51214;SDS011;63849;47.546;19.254;2023-06-24T01:13:21;5.22;;;4.70;;
51214;SDS011;63849;47.546;19.254;2023-06-24T01:15:47;5.70;;;4.28;;
51214;SDS011;63849;47.546;19.254;2023-06-24T01:18:33;5.57;;;4.32;;
51214;SDS011;63849;47.546;19.254;2023-06-24T01:21:23;4.78;;;4.38;;
51214;SDS011;63849;47.546;19.254;2023-06-24T01:24:15;5.30;;;4.15;;
51214;SDS011;63849;47.546;19.254;2023-06-24T01:26:52;4.45;;;4.05;;
51214;SDS011;63849;47.546;19.254;2023-06-24T01:34:55;4.20;;;3.80;;
51214;SDS011;63849;47.546;19.254;2023-06-24T01:37:32;4.50;;;4.10;;
51214;SDS011;63849;47.546;19.254;2023-06-24T01:40:10;4.40;;;4.10;;
51214;SDS011;63849;47.546;19.254;2023-06-24T01:42:44;5.78;;;4.25;;
51214;SDS011;63849;47.546;19.254;2023-06-24T01:45:16;7.03;;;4.10;;
51214;SDS011;63849;47.546;19.254;2023-06-24T01:48:00;5.53;;;3.72;;
51214;SDS011;63849;47.546;19.254;2023-06-24T01:50:30;4.35;;;3.90;;
51214;SDS011;63849;47.546;19.254;2023-06-24T01:52:58;4.40;;;4.00;;
51214;SDS011;63849;47.546;19.254;2023-06-24T01:55:29;5.03;;;3.97;;
51214;SDS011;63849;47.546;19.254;2023-06-24T01:57:58;4.30;;;4.00;;
51214;SDS011;63849;47.546;19.254;2023-06-24T02:00:28;4.35;;;3.92;;
51214;SDS011;63849;47.546;19.254;2023-06-24T02:02:54;4.47;;;4.05;;
51214;SDS011;63849;47.546;19.254;2023-06-24T02:05:21;4.57;;;4.18;;
51214;SDS011;63849;47.546;19.254;2023-06-24T02:07:49;4.72;;;4.00;;
51214;SDS011;63849;47.546;19.254;2023-06-24T02:10:17;3.88;;;3.58;;
51214;SDS011;63849;47.546;19.254;2023-06-24T02:12:45;5.72;;;4.35;;
51214;SDS011;63849;47.546;19.254;2023-06-24T02:15:16;5.75;;;4.63;;
51214;SDS011;63849;47.546;19.254;2023-06-24T02:17:42;6.13;;;4.55;;
51214;SDS011;63849;47.546;19.254;2023-06-24T02:20:09;5.00;;;4.50;;
51214;SDS011;63849;47.546;19.254;2023-06-24T02:22:36;5.18;;;4.32;;
51214;SDS011;63849;47.546;19.254;2023-06-24T02:25:04;5.28;;;4.63;;
51214;SDS011;63849;47.546;19.254;2023-06-24T02:27:32;5.05;;;4.50;;
51214;SDS011;63849;47.546;19.254;2023-06-24T02:30:00;6.50;;;4.75;;
51214;SDS011;63849;47.546;19.254;2023-06-24T02:32:27;5.45;;;4.40;;
51214;SDS011;63849;47.546;19.254;2023-06-24T02:34:53;5.45;;;4.40;;
51214;SDS011;63849;47.546;19.254;2023-06-24T02:37:19;4.78;;;4.25;;
51214;SDS011;63849;47.546;19.254;2023-06-24T02:39:44;6.55;;;4.30;;
51214;SDS011;63849;47.546;19.254;2023-06-24T02:42:11;6.15;;;4.70;;
51214;SDS011;63849;47.546;19.254;2023-06-24T02:44:38;5.65;;;4.40;;
51214;SDS011;63849;47.546;19.254;2023-06-24T02:47:06;4.38;;;4.03;;
51214;SDS011;63849;47.546;19.254;2023-06-24T02:49:35;5.00;;;4.38;;
51214;SDS011;63849;47.546;19.254;2023-06-24T02:52:03;4.47;;;3.70;;
51214;SDS011;63849;47.546;19.254;2023-06-24T02:54:29;4.85;;;3.80;;
51214;SDS011;63849;47.546;19.254;2023-06-24T02:56:55;4.03;;;3.65;;
51214;SDS011;63849;47.546;19.254;2023-06-24T02:59:23;4.72;;;4.13;;
51214;SDS011;63849;47.546;19.254;2023-06-24T03:01:49;6.07;;;4.18;;
51214;SDS011;63849;47.546;19.254;2023-06-24T03:04:17;3.80;;;3.47;;
51214;SDS011;63849;47.546;19.254;2023-06-24T03:06:45;3.63;;;3.33;;
51214;SDS011;63849;47.546;19.254;2023-06-24T03:09:11;4.38;;;3.50;;
51214;SDS011;63849;47.546;19.254;2023-06-24T03:11:41;5.32;;;3.58;;
51214;SDS011;63849;47.546;19.254;2023-06-24T03:14:10;3.47;;;3.17;;
51214;SDS011;63849;47.546;19.254;2023-06-24T03:16:36;3.53;;;3.25;;
51214;SDS011;63849;47.546;19.254;2023-06-24T03:19:05;4.60;;;3.25;;
51214;SDS011;63849;47.546;19.254;2023-06-24T03:21:31;4.18;;;3.22;;
51214;SDS011;63849;47.546;19.254;2023-06-24T03:23:57;5.10;;;3.67;;
51214;SDS011;63849;47.546;19.254;2023-06-24T03:26:33;4.65;;;3.78;;
51214;SDS011;63849;47.546;19.254;2023-06-24T03:29:00;5.30;;;2.90;;
51214;SDS011;63849;47.546;19.254;2023-06-24T03:31:26;5.72;;;3.47;;
51214;SDS011;63849;47.546;19.254;2023-06-24T03:33:52;4.00;;;2.95;;
51214;SDS011;63849;47.546;19.254;2023-06-24T03:36:18;6.10;;;4.00;;
51214;SDS011;63849;47.546;19.254;2023-06-24T03:38:45;4.53;;;3.85;;
51214;SDS011;63849;47.546;19.254;2023-06-24T03:41:11;4.68;;;3.60;;
51214;SDS011;63849;47.546;19.254;2023-06-24T03:43:37;4.03;;;3.58;;
51214;SDS011;63849;47.546;19.254;2023-06-24T03:46:02;6.38;;;3.58;;
51214;SDS011;63849;47.546;19.254;2023-06-24T03:48:28;3.78;;;3.47;;
51214;SDS011;63849;47.546;19.254;2023-06-24T03:50:54;4.15;;;3.63;;
51214;SDS011;63849;47.546;19.254;2023-06-24T03:53:20;5.00;;;3.60;;
51214;SDS011;63849;47.546;19.254;2023-06-24T03:55:45;5.43;;;3.20;;
51214;SDS011;63849;47.546;19.254;2023-06-24T03:58:11;10.35;;;3.88;;
51214;SDS011;63849;47.546;19.254;2023-06-24T04:00:38;4.57;;;3.10;;
51214;SDS011;63849;47.546;19.254;2023-06-24T04:03:08;3.65;;;3.35;;
51214;SDS011;63849;47.546;19.254;2023-06-24T04:05:33;4.05;;;3.65;;
51214;SDS011;63849;47.546;19.254;2023-06-24T04:07:59;3.97;;;3.50;;
51214;SDS011;63849;47.546;19.254;2023-06-24T04:10:25;5.10;;;3.40;;
51214;SDS011;63849;47.546;19.254;2023-06-24T04:12:51;4.80;;;2.70;;
51214;SDS011;63849;47.546;19.254;2023-06-24T04:15:17;4.20;;;3.42;;
51214;SDS011;63849;47.546;19.254;2023-06-24T04:17:43;3.47;;;3.17;;
51214;SDS011;63849;47.546;19.254;2023-06-24T04:20:08;6.32;;;3.17;;
51214;SDS011;63849;47.546;19.254;2023-06-24T04:22:41;4.78;;;3.00;;
51214;SDS011;63849;47.546;19.254;2023-06-24T04:25:07;6.80;;;3.33;;
51214;SDS011;63849;47.546;19.254;2023-06-24T04:27:34;4.82;;;2.55;;
51214;SDS011;63849;47.546;19.254;2023-06-24T04:30:00;3.15;;;2.85;;
51214;SDS011;63849;47.546;19.254;2023-06-24T04:32:27;2.75;;;2.55;;
51214;SDS011;63849;47.546;19.254;2023-06-24T04:34:52;6.63;;;3.17;;
51214;SDS011;63849;47.546;19.254;2023-06-24T04:37:18;4.65;;;2.65;;
51214;SDS011;63849;47.546;19.254;2023-06-24T04:39:44;3.90;;;2.88;;
51214;SDS011;63849;47.546;19.254;2023-06-24T04:42:10;5.82;;;2.63;;
51214;SDS011;63849;47.546;19.254;2023-06-24T04:44:37;3.67;;;2.58;;
51214;SDS011;63849;47.546;19.254;2023-06-24T04:47:03;4.80;;;2.50;;
51214;SDS011;63849;47.546;19.254;2023-06-24T04:49:28;2.97;;;2.50;;
51214;SDS011;63849;47.546;19.254;2023-06-24T04:51:54;4.20;;;2.45;;
51214;SDS011;63849;47.546;19.254;2023-06-24T04:54:20;4.63;;;2.40;;
51214;SDS011;63849;47.546;19.254;2023-06-24T04:56:46;3.42;;;2.20;;
51214;SDS011;63849;47.546;19.254;2023-06-24T04:59:13;3.38;;;1.95;;
51214;SDS011;63849;47.546;19.254;2023-06-24T05:01:39;3.55;;;2.42;;
51214;SDS011;63849;47.546;19.254;2023-06-24T05:04:05;3.10;;;2.13;;
51214;SDS011;63849;47.546;19.254;2023-06-24T05:06:30;5.40;;;2.33;;
51214;SDS011;63849;47.546;19.254;2023-06-24T05:08:56;4.32;;;1.98;;
51214;SDS011;63849;47.546;19.254;2023-06-24T05:11:22;2.78;;;2.15;;
51214;SDS011;63849;47.546;19.254;2023-06-24T05:13:48;7.63;;;2.25;;
51214;SDS011;63849;47.546;19.254;2023-06-24T05:16:13;2.22;;;1.90;;
51214;SDS011;63849;47.546;19.254;2023-06-24T05:18:39;3.60;;;2.13;;
51214;SDS011;63849;47.546;19.254;2023-06-24T05:21:05;5.55;;;1.77;;
51214;SDS011;63849;47.546;19.254;2023-06-24T05:23:31;1.98;;;1.88;;
51214;SDS011;63849;47.546;19.254;2023-06-24T05:25:57;1.92;;;1.73;;
51214;SDS011;63849;47.546;19.254;2023-06-24T05:28:22;2.95;;;1.45;;
51214;SDS011;63849;47.546;19.254;2023-06-24T05:30:48;2.15;;;1.38;;
51214;SDS011;63849;47.546;19.254;2023-06-24T05:33:14;2.40;;;1.73;;
51214;SDS011;63849;47.546;19.254;2023-06-24T05:35:42;2.08;;;1.88;;
51214;SDS011;63849;47.546;19.254;2023-06-24T05:38:08;1.40;;;1.30;;
51214;SDS011;63849;47.546;19.254;2023-06-24T05:40:34;1.33;;;1.30;;
51214;SDS011;63849;47.546;19.254;2023-06-24T05:43:00;1.40;;;1.30;;
51214;SDS011;63849;47.546;19.254;2023-06-24T05:45:26;2.97;;;1.92;;
51214;SDS011;63849;47.546;19.254;2023-06-24T05:47:52;1.50;;;1.40;;
51214;SDS011;63849;47.546;19.254;2023-06-24T05:50:17;2.35;;;1.35;;
51214;SDS011;63849;47.546;19.254;2023-06-24T05:52:43;3.28;;;1.52;;
51214;SDS011;63849;47.546;19.254;2023-06-24T05:55:10;1.90;;;1.35;;
51214;SDS011;63849;47.546;19.254;2023-06-24T05:57:38;2.38;;;1.38;;
51214;SDS011;63849;47.546;19.254;2023-06-24T06:00:05;1.65;;;1.55;;
51214;SDS011;63849;47.546;19.254;2023-06-24T06:02:32;3.25;;;1.42;;
51214;SDS011;63849;47.546;19.254;2023-06-24T06:04:57;1.45;;;1.20;;
51214;SDS011;63849;47.546;19.254;2023-06-24T06:07:23;1.20;;;1.20;;
51214;SDS011;63849;47.546;19.254;2023-06-24T06:09:49;1.50;;;1.40;;
51214;SDS011;63849;47.546;19.254;2023-06-24T06:12:14;1.50;;;1.40;;
51214;SDS011;63849;47.546;19.254;2023-06-24T06:14:40;2.10;;;1.33;;
51214;SDS011;63849;47.546;19.254;2023-06-24T06:17:06;1.38;;;1.27;;
51214;SDS011;63849;47.546;19.254;2023-06-24T06:19:31;2.53;;;1.30;;
51214;SDS011;63849;47.546;19.254;2023-06-24T06:21:57;2.95;;;1.52;;
51214;SDS011;63849;47.546;19.254;2023-06-24T06:24:23;2.13;;;1.48;;
51214;SDS011;63849;47.546;19.254;2023-06-24T06:26:49;2.40;;;1.30;;
51214;SDS011;63849;47.546;19.254;2023-06-24T06:29:14;3.30;;;1.40;;
51214;SDS011;63849;47.546;19.254;2023-06-24T06:31:40;2.17;;;1.42;;
51214;SDS011;63849;47.546;19.254;2023-06-24T06:34:06;1.30;;;1.20;;
51214;SDS011;63849;47.546;19.254;2023-06-24T06:36:32;1.20;;;1.10;;
51214;SDS011;63849;47.546;19.254;2023-06-24T06:38:58;1.85;;;1.65;;
51214;SDS011;63849;47.546;19.254;2023-06-24T06:41:23;3.03;;;1.38;;
51214;SDS011;63849;47.546;19.254;2023-06-24T06:43:53;1.65;;;1.05;;
51214;SDS011;63849;47.546;19.254;2023-06-24T06:46:19;1.10;;;1.10;;
51214;SDS011;63849;47.546;19.254;2023-06-24T06:48:45;1.67;;;1.20;;
51214;SDS011;63849;47.546;19.254;2023-06-24T06:51:11;2.15;;;1.15;;
51214;SDS011;63849;47.546;19.254;2023-06-24T06:53:38;1.25;;;1.15;;
51214;SDS011;63849;47.546;19.254;2023-06-24T06:56:04;1.90;;;1.05;;
51214;SDS011;63849;47.546;19.254;2023-06-24T06:58:29;1.17;;;1.10;;
51214;SDS011;63849;47.546;19.254;2023-06-24T07:00:55;2.60;;;1.05;;
51214;SDS011;63849;47.546;19.254;2023-06-24T07:03:26;1.00;;;1.00;;
51214;SDS011;63849;47.546;19.254;2023-06-24T07:05:53;1.30;;;1.20;;
51214;SDS011;63849;47.546;19.254;2023-06-24T07:08:18;2.30;;;0.90;;
51214;SDS011;63849;47.546;19.254;2023-06-24T07:10:44;1.15;;;0.98;;
51214;SDS011;63849;47.546;19.254;2023-06-24T07:13:10;1.35;;;1.00;;
51214;SDS011;63849;47.546;19.254;2023-06-24T07:15:35;1.85;;;1.00;;
51214;SDS011;63849;47.546;19.254;2023-06-24T07:18:01;1.30;;;1.20;;
51214;SDS011;63849;47.546;19.254;2023-06-24T07:20:27;1.17;;;1.15;;
51214;SDS011;63849;47.546;19.254;2023-06-24T07:22:53;1.20;;;1.05;;
51214;SDS011;63849;47.546;19.254;2023-06-24T07:25:18;1.38;;;1.05;;
51214;SDS011;63849;47.546;19.254;2023-06-24T07:27:44;1.50;;;1.40;;
51214;SDS011;63849;47.546;19.254;2023-06-24T07:30:10;1.17;;;1.17;;
51214;SDS011;63849;47.546;19.254;2023-06-24T07:32:36;1.08;;;1.05;;
51214;SDS011;63849;47.546;19.254;2023-06-24T07:35:02;1.17;;;0.95;;
51214;SDS011;63849;47.546;19.254;2023-06-24T07:37:28;1.52;;;1.10;;
51214;SDS011;63849;47.546;19.254;2023-06-24T07:39:53;1.30;;;1.20;;
51214;SDS011;63849;47.546;19.254;2023-06-24T07:42:19;2.17;;;1.33;;
51214;SDS011;63849;47.546;19.254;2023-06-24T07:44:45;2.70;;;1.00;;
51214;SDS011;63849;47.546;19.254;2023-06-24T07:47:11;1.35;;;1.15;;
51214;SDS011;63849;47.546;19.254;2023-06-24T07:49:37;1.25;;;1.10;;
51214;SDS011;63849;47.546;19.254;2023-06-24T07:52:03;3.63;;;1.63;;
51214;SDS011;63849;47.546;19.254;2023-06-24T07:54:31;2.25;;;1.35;;
51214;SDS011;63849;47.546;19.254;2023-06-24T07:56:57;2.25;;;1.45;;
51214;SDS011;63849;47.546;19.254;2023-06-24T07:59:22;1.80;;;1.40;;
51214;SDS011;63849;47.546;19.254;2023-06-24T08:01:49;1.20;;;1.13;;
51214;SDS011;63849;47.546;19.254;2023-06-24T08:04:15;1.65;;;1.20;;
51214;SDS011;63849;47.546;19.254;2023-06-24T08:06:41;3.15;;;1.33;;
51214;SDS011;63849;47.546;19.254;2023-06-24T08:09:07;4.28;;;1.73;;
51214;SDS011;63849;47.546;19.254;2023-06-24T08:11:32;1.50;;;1.40;;
51214;SDS011;63849;47.546;19.254;2023-06-24T08:13:58;1.70;;;1.17;;
51214;SDS011;63849;47.546;19.254;2023-06-24T08:16:24;2.05;;;1.65;;
51214;SDS011;63849;47.546;19.254;2023-06-24T08:18:50;3.13;;;2.28;;
51214;SDS011;63849;47.546;19.254;2023-06-24T08:21:16;2.25;;;1.83;;
51214;SDS011;63849;47.546;19.254;2023-06-24T08:23:42;2.25;;;1.70;;
51214;SDS011;63849;47.546;19.254;2023-06-24T08:26:07;1.52;;;1.42;;
51214;SDS011;63849;47.546;19.254;2023-06-24T08:28:33;4.15;;;2.00;;
51214;SDS011;63849;47.546;19.254;2023-06-24T08:31:00;1.77;;;1.67;;
51214;SDS011;63849;47.546;19.254;2023-06-24T08:33:26;2.00;;;1.90;;
51214;SDS011;63849;47.546;19.254;2023-06-24T08:35:51;2.28;;;2.08;;
51214;SDS011;63849;47.546;19.254;2023-06-24T08:38:17;2.65;;;2.45;;
51214;SDS011;63849;47.546;19.254;2023-06-24T08:40:43;2.83;;;2.20;;
51214;SDS011;63849;47.546;19.254;2023-06-24T08:43:10;2.00;;;1.90;;
51214;SDS011;63849;47.546;19.254;2023-06-24T08:45:36;2.50;;;1.95;;
51214;SDS011;63849;47.546;19.254;2023-06-24T08:48:02;2.70;;;2.22;;
51214;SDS011;63849;47.546;19.254;2023-06-24T08:50:31;2.83;;;1.92;;
51214;SDS011;63849;47.546;19.254;2023-06-24T08:53:06;3.83;;;2.50;;
51214;SDS011;63849;47.546;19.254;2023-06-24T08:55:36;3.17;;;2.10;;
51214;SDS011;63849;47.546;19.254;2023-06-24T08:58:07;2.03;;;1.90;;
51214;SDS011;63849;47.546;19.254;2023-06-24T09:00:33;2.60;;;1.95;;
51214;SDS011;63849;47.546;19.254;2023-06-24T09:02:59;4.72;;;1.90;;
51214;SDS011;63849;47.546;19.254;2023-06-24T09:05:25;3.22;;;1.90;;
51214;SDS011;63849;47.546;19.254;2023-06-24T09:07:51;1.95;;;1.50;;
51214;SDS011;63849;47.546;19.254;2023-06-24T09:10:40;2.47;;;1.67;;
51214;SDS011;63849;47.546;19.254;2023-06-24T09:13:05;2.63;;;1.50;;
51214;SDS011;63849;47.546;19.254;2023-06-24T09:15:32;2.00;;;1.90;;
51214;SDS011;63849;47.546;19.254;2023-06-24T09:17:58;2.95;;;1.88;;
51214;SDS011;63849;47.546;19.254;2023-06-24T09:20:27;1.70;;;1.60;;
51214;SDS011;63849;47.546;19.254;2023-06-24T09:23:02;1.70;;;1.60;;
51214;SDS011;63849;47.546;19.254;2023-06-24T09:25:30;2.95;;;1.83;;
51214;SDS011;63849;47.546;19.254;2023-06-24T09:28:00;1.42;;;1.33;;
51214;SDS011;63849;47.546;19.254;2023-06-24T09:30:26;3.22;;;2.05;;
51214;SDS011;63849;47.546;19.254;2023-06-24T09:32:52;2.40;;;1.60;;
51214;SDS011;63849;47.546;19.254;2023-06-24T09:35:19;1.70;;;1.60;;
51214;SDS011;63849;47.546;19.254;2023-06-24T09:37:53;2.13;;;1.85;;
51214;SDS011;63849;47.546;19.254;2023-06-24T09:45:23;2.03;;;1.67;;
51214;SDS011;63849;47.546;19.254;2023-06-24T09:47:53;1.88;;;1.50;;
51214;SDS011;63849;47.546;19.254;2023-06-24T09:50:19;1.63;;;1.52;;
51214;SDS011;63849;47.546;19.254;2023-06-24T09:52:45;4.40;;;2.13;;
51214;SDS011;63849;47.546;19.254;2023-06-24T09:55:13;2.47;;;1.90;;
51214;SDS011;63849;47.546;19.254;2023-06-24T09:57:41;2.08;;;1.80;;
51214;SDS011;63849;47.546;19.254;2023-06-24T10:00:16;2.22;;;1.63;;
51214;SDS011;63849;47.546;19.254;2023-06-24T10:02:44;1.67;;;1.58;;
51214;SDS011;63849;47.546;19.254;2023-06-24T10:05:11;1.73;;;1.63;;
51214;SDS011;63849;47.546;19.254;2023-06-24T10:07:41;2.08;;;1.55;;
51214;SDS011;63849;47.546;19.254;2023-06-24T10:10:07;2.85;;;2.00;;
51214;SDS011;63849;47.546;19.254;2023-06-24T10:12:36;3.00;;;1.65;;
51214;SDS011;63849;47.546;19.254;2023-06-24T10:15:03;2.17;;;1.75;;
51214;SDS011;63849;47.546;19.254;2023-06-24T10:17:30;3.20;;;2.05;;
51214;SDS011;63849;47.546;19.254;2023-06-24T10:19:56;1.77;;;1.65;;
51214;SDS011;63849;47.546;19.254;2023-06-24T10:22:22;1.65;;;1.52;;
51214;SDS011;63849;47.546;19.254;2023-06-24T10:24:53;3.40;;;1.80;;
51214;SDS011;63849;47.546;19.254;2023-06-24T10:27:20;2.33;;;1.80;;
51214;SDS011;63849;47.546;19.254;2023-06-24T10:29:47;2.72;;;1.80;;
51214;SDS011;63849;47.546;19.254;2023-06-24T10:32:15;2.72;;;2.08;;
51214;SDS011;63849;47.546;19.254;2023-06-24T10:37:19;2.25;;;1.73;;
51214;SDS011;63849;47.546;19.254;2023-06-24T10:39:52;4.22;;;1.85;;
51214;SDS011;63849;47.546;19.254;2023-06-24T10:47:34;2.05;;;1.95;;
51214;SDS011;63849;47.546;19.254;2023-06-24T10:50:00;2.38;;;1.90;;
51214;SDS011;63849;47.546;19.254;2023-06-24T10:52:26;2.13;;;1.92;;
51214;SDS011;63849;47.546;19.254;2023-06-24T10:54:52;1.80;;;1.70;;
51214;SDS011;63849;47.546;19.254;2023-06-24T10:57:22;2.00;;;1.90;;
51214;SDS011;63849;47.546;19.254;2023-06-24T10:59:50;2.20;;;2.00;;
51214;SDS011;63849;47.546;19.254;2023-06-24T11:02:17;1.75;;;1.65;;
51214;SDS011;63849;47.546;19.254;2023-06-24T11:04:50;2.45;;;1.70;;
51214;SDS011;63849;47.546;19.254;2023-06-24T11:07:22;1.92;;;1.80;;
51214;SDS011;63849;47.546;19.254;2023-06-24T11:09:52;2.30;;;2.10;;
51214;SDS011;63849;47.546;19.254;2023-06-24T11:12:23;1.80;;;1.70;;
51214;SDS011;63849;47.546;19.254;2023-06-24T11:14:51;1.92;;;1.80;;
51214;SDS011;63849;47.546;19.254;2023-06-24T11:17:20;2.35;;;2.03;;
51214;SDS011;63849;47.546;19.254;2023-06-24T11:19:46;2.00;;;1.90;;
51214;SDS011;63849;47.546;19.254;2023-06-24T11:22:12;2.20;;;2.05;;
51214;SDS011;63849;47.546;19.254;2023-06-24T11:24:37;2.08;;;1.98;;
51214;SDS011;63849;47.546;19.254;2023-06-24T11:27:04;2.67;;;2.20;;
51214;SDS011;63849;47.546;19.254;2023-06-24T11:29:31;3.35;;;2.15;;
51214;SDS011;63849;47.546;19.254;2023-06-24T11:31:58;3.65;;;2.35;;
51214;SDS011;63849;47.546;19.254;2023-06-24T11:34:24;2.55;;;1.98;;
51214;SDS011;63849;47.546;19.254;2023-06-24T11:36:50;2.33;;;2.00;;
51214;SDS011;63849;47.546;19.254;2023-06-24T11:39:26;2.45;;;2.10;;
51214;SDS011;63849;47.546;19.254;2023-06-24T11:41:53;2.28;;;2.08;;
51214;SDS011;63849;47.546;19.254;2023-06-24T11:44:25;8.48;;;7.55;;
51214;SDS011;63849;47.546;19.254;2023-06-24T11:46:52;2.30;;;2.10;;
51214;SDS011;63849;47.546;19.254;2023-06-24T11:49:27;2.30;;;2.20;;
51214;SDS011;63849;47.546;19.254;2023-06-24T11:51:53;3.40;;;2.70;;
51214;SDS011;63849;47.546;19.254;2023-06-24T11:54:20;3.42;;;2.40;;
51214;SDS011;63849;47.546;19.254;2023-06-24T11:56:52;2.47;;;2.28;;
51214;SDS011;63849;47.546;19.254;2023-06-24T11:59:27;2.28;;;2.17;;
51214;SDS011;63849;47.546;19.254;2023-06-24T12:01:56;2.55;;;2.33;;
51214;SDS011;63849;47.546;19.254;2023-06-24T12:04:28;2.42;;;2.22;;
51214;SDS011;63849;47.546;19.254;2023-06-24T12:06:58;2.78;;;2.10;;
51214;SDS011;63849;47.546;19.254;2023-06-24T12:09:25;2.40;;;2.20;;
51214;SDS011;63849;47.546;19.254;2023-06-24T12:11:51;3.00;;;2.80;;
51214;SDS011;63849;47.546;19.254;2023-06-24T12:14:17;2.42;;;2.17;;
51214;SDS011;63849;47.546;19.254;2023-06-24T12:16:43;2.60;;;2.33;;
51214;SDS011;63849;47.546;19.254;2023-06-24T12:19:09;2.00;;;1.88;;
51214;SDS011;63849;47.546;19.254;2023-06-24T12:21:36;2.67;;;2.40;;
51214;SDS011;63849;47.546;19.254;2023-06-24T12:24:03;2.88;;;2.67;;
51214;SDS011;63849;47.546;19.254;2023-06-24T12:26:30;2.75;;;2.53;;
51214;SDS011;63849;47.546;19.254;2023-06-24T12:28:56;3.22;;;2.80;;
51214;SDS011;63849;47.546;19.254;2023-06-24T12:31:23;4.53;;;4.13;;
51214;SDS011;63849;47.546;19.254;2023-06-24T12:33:50;4.97;;;4.57;;
51214;SDS011;63849;47.546;19.254;2023-06-24T12:36:17;3.60;;;2.53;;
51214;SDS011;63849;47.546;19.254;2023-06-24T12:38:43;4.45;;;4.05;;
51214;SDS011;63849;47.546;19.254;2023-06-24T12:41:09;4.25;;;3.53;;
51214;SDS011;63849;47.546;19.254;2023-06-24T12:43:35;6.35;;;5.13;;
51214;SDS011;63849;47.546;19.254;2023-06-24T12:46:01;3.83;;;3.35;;
51214;SDS011;63849;47.546;19.254;2023-06-24T12:48:26;2.28;;;2.05;;
51214;SDS011;63849;47.546;19.254;2023-06-24T12:50:52;3.60;;;3.30;;
51214;SDS011;63849;47.546;19.254;2023-06-24T12:53:19;2.97;;;2.25;;
51214;SDS011;63849;47.546;19.254;2023-06-24T12:55:45;2.20;;;2.10;;
51214;SDS011;63849;47.546;19.254;2023-06-24T12:58:12;3.17;;;1.70;;
51214;SDS011;63849;47.546;19.254;2023-06-24T13:00:48;3.30;;;2.88;;
51214;SDS011;63849;47.546;19.254;2023-06-24T13:03:14;2.83;;;2.15;;
51214;SDS011;63849;47.546;19.254;2023-06-24T13:05:39;1.80;;;1.70;;
51214;SDS011;63849;47.546;19.254;2023-06-24T13:08:05;1.75;;;1.65;;
51214;SDS011;63849;47.546;19.254;2023-06-24T13:10:31;1.98;;;1.80;;
51214;SDS011;63849;47.546;19.254;2023-06-24T13:12:57;2.08;;;1.60;;
51214;SDS011;63849;47.546;19.254;2023-06-24T13:15:24;2.13;;;1.85;;
51214;SDS011;63849;47.546;19.254;2023-06-24T13:17:50;2.15;;;1.75;;
51214;SDS011;63849;47.546;19.254;2023-06-24T13:20:16;2.03;;;1.92;;
51214;SDS011;63849;47.546;19.254;2023-06-24T13:22:42;2.65;;;1.83;;
51214;SDS011;63849;47.546;19.254;2023-06-24T13:25:08;1.70;;;1.60;;
51214;SDS011;63849;47.546;19.254;2023-06-24T13:27:34;3.00;;;1.83;;
51214;SDS011;63849;47.546;19.254;2023-06-24T13:29:59;2.00;;;1.75;;
51214;SDS011;63849;47.546;19.254;2023-06-24T13:32:25;2.13;;;1.80;;
51214;SDS011;63849;47.546;19.254;2023-06-24T13:34:51;1.90;;;1.70;;
51214;SDS011;63849;47.546;19.254;2023-06-24T13:37:17;2.95;;;1.67;;
51214;SDS011;63849;47.546;19.254;2023-06-24T13:39:42;2.10;;;1.95;;
51214;SDS011;63849;47.546;19.254;2023-06-24T13:42:09;2.15;;;1.95;;
51214;SDS011;63849;47.546;19.254;2023-06-24T13:44:35;1.95;;;1.60;;
51214;SDS011;63849;47.546;19.254;2023-06-24T13:47:01;1.70;;;1.60;;
51214;SDS011;63849;47.546;19.254;2023-06-24T13:49:27;1.75;;;1.65;;
51214;SDS011;63849;47.546;19.254;2023-06-24T13:51:53;1.92;;;1.67;;
51214;SDS011;63849;47.546;19.254;2023-06-24T13:54:18;1.70;;;1.60;;
51214;SDS011;63849;47.546;19.254;2023-06-24T13:56:44;1.70;;;1.60;;
51214;SDS011;63849;47.546;19.254;2023-06-24T13:59:10;1.70;;;1.58;;
51214;SDS011;63849;47.546;19.254;2023-06-24T14:01:36;1.70;;;1.60;;
51214;SDS011;63849;47.546;19.254;2023-06-24T14:04:02;2.00;;;1.77;;
51214;SDS011;63849;47.546;19.254;2023-06-24T14:06:28;2.70;;;2.47;;
51214;SDS011;63849;47.546;19.254;2023-06-24T14:08:54;2.10;;;2.00;;
51214;SDS011;63849;47.546;19.254;2023-06-24T14:11:20;3.60;;;2.30;;
51214;SDS011;63849;47.546;19.254;2023-06-24T14:13:46;2.05;;;1.95;;
51214;SDS011;63849;47.546;19.254;2023-06-24T14:16:11;3.13;;;2.25;;
51214;SDS011;63849;47.546;19.254;2023-06-24T14:18:38;2.30;;;2.10;;
51214;SDS011;63849;47.546;19.254;2023-06-24T14:21:05;2.00;;;1.90;;
51214;SDS011;63849;47.546;19.254;2023-06-24T14:23:32;3.20;;;2.83;;
51214;SDS011;63849;47.546;19.254;2023-06-24T14:25:59;2.55;;;2.35;;
51214;SDS011;63849;47.546;19.254;2023-06-24T14:28:25;2.53;;;2.35;;
51214;SDS011;63849;47.546;19.254;2023-06-24T14:30:51;3.97;;;2.58;;
51214;SDS011;63849;47.546;19.254;2023-06-24T14:33:17;2.67;;;2.53;;
51214;SDS011;63849;47.546;19.254;2023-06-24T14:35:43;3.65;;;2.70;;
51214;SDS011;63849;47.546;19.254;2023-06-24T14:38:09;3.05;;;2.85;;
51214;SDS011;63849;47.546;19.254;2023-06-24T14:40:34;3.78;;;2.80;;
51214;SDS011;63849;47.546;19.254;2023-06-24T14:43:01;2.95;;;2.60;;
51214;SDS011;63849;47.546;19.254;2023-06-24T14:45:28;3.50;;;3.17;;
51214;SDS011;63849;47.546;19.254;2023-06-24T14:47:54;3.53;;;3.30;;
51214;SDS011;63849;47.546;19.254;2023-06-24T14:50:20;3.28;;;3.03;;
51214;SDS011;63849;47.546;19.254;2023-06-24T14:52:45;3.65;;;3.13;;